KABE

Lehigh Valley International Airport

Allentown, Pennsylvania, USA
METAR KABE 241159Z 00000KT 1 1/2SM BR OVC009 06/04 A3018 RMK AO2 TWR VIS 2 1/2 T00560044
Observed Flight Rules
Feb-24 @ 11:59 UTC (24 minutes ago) Instrument Flight Rules
Wind Visibility Clouds Conditions
Calm 1 1/2 miles
  • Overcast at 900' AGL
  • Mist
Temperatures Readings
Current 6°C / 43°F
Dewpoint 4°C / 39°F
Humidity 87%
Altimeter 30.18" Hg
Pressure 1022 hPa
Elevation 114
METAR KABE 241159Z 00000KT 1 1/2SM BR OVC009 06/04 A3018 RMK AO2 TWR VIS 2 1/2 T00560044
Observed Flight Rules
Feb-24 @ 11:59 UTC
(24 minutes ago)
IFR
Wind Visibility
Calm 1 1/2 miles
Clouds
  • Overcast at 900' AGL
Conditions
  • Mist
Temperature Dewpoint
6°C / 43°F 4°C / 39°F
Humidity Altimeter Pressure
87% 30.18" Hg 1022 hPa